Time;durP1;ratioP1;P1;durP2;ratioP2;P2;SDS_P1;SDS_P2;PMS_P1;PMS_P2;Temp;Humidity;BMP_temperature;BMP_pressure;BME280_temperature;BME280_humidity;BME280_pressure;Samples;Min_cycle;Max_cycle;Signal;HPM_P1;HPM_P2
2021/06/06 00:02:32;;;;;;;18.73;12.45;;;16.20;53.20;;;;;;5124981;27;20160;-64
2021/06/06 00:05:23;;;;;;;17.55;12.00;;;16.20;53.80;;;;;;5128648;27;20054;-65
2021/06/06 00:08:12;;;;;;;16.55;10.95;;;16.20;52.70;;;;;;5122906;27;20084;-65
2021/06/06 00:11:03;;;;;;;16.60;11.43;;;16.10;53.70;;;;;;5128443;27;20118;-66
2021/06/06 00:13:54;;;;;;;17.50;12.13;;;16.10;54.70;;;;;;5111269;27;20455;-65
2021/06/06 00:16:45;;;;;;;17.15;10.50;;;16.10;54.00;;;;;;5125226;27;20496;-64
2021/06/06 00:19:33;;;;;;;15.45;11.18;;;16.10;54.90;;;;;;5124012;27;20122;-64
2021/06/06 00:22:21;;;;;;;18.63;12.32;;;16.00;52.20;;;;;;5128089;27;20057;-65
2021/06/06 00:25:13;;;;;;;15.73;11.32;;;15.90;53.70;;;;;;5126199;27;20459;-65
2021/06/06 00:28:01;;;;;;;17.48;12.70;;;15.90;55.30;;;;;;5125175;27;20046;-66
2021/06/06 00:30:49;;;;;;;17.80;11.70;;;15.90;55.40;;;;;;5124588;27;20051;-64
2021/06/06 00:33:37;;;;;;;16.55;11.63;;;15.90;55.10;;;;;;5109238;27;20070;-65
2021/06/06 00:36:26;;;;;;;15.27;11.57;;;15.80;55.70;;;;;;5127908;27;20419;-65
2021/06/06 00:39:14;;;;;;;18.83;12.40;;;15.70;56.50;;;;;;5128786;27;20040;-65
2021/06/06 00:42:06;;;;;;;16.00;11.73;;;15.80;56.20;;;;;;5123305;27;20039;-65
2021/06/06 00:44:55;;;;;;;17.25;11.73;;;15.80;56.30;;;;;;5097007;27;20056;-65
2021/06/06 00:47:44;;;;;;;16.02;11.27;;;15.80;56.10;;;;;;5108755;27;20047;-66
2021/06/06 00:50:35;;;;;;;16.77;11.73;;;15.80;54.60;;;;;;5111347;27;20043;-64
2021/06/06 00:53:33;;;;;;;14.70;11.23;;;15.70;55.20;;;;;;5124446;27;20040;-65
2021/06/06 00:56:26;;;;;;;16.30;12.43;;;15.80;54.80;;;;;;5109689;27;20040;-65
2021/06/06 00:59:24;;;;;;;14.50;11.38;;;15.90;55.60;;;;;;5118535;27;20047;-64
2021/06/06 01:02:14;;;;;;;17.05;12.00;;;15.70;53.40;;;;;;5122282;27;20047;-64
2021/06/06 01:05:05;;;;;;;16.98;10.68;;;15.70;53.80;;;;;;5110224;27;20050;-64
2021/06/06 01:07:53;;;;;;;18.45;11.60;;;15.80;54.70;;;;;;5126150;27;20046;-65
2021/06/06 01:10:42;;;;;;;16.58;11.80;;;15.70;54.50;;;;;;5129921;27;20043;-65
2021/06/06 01:13:40;;;;;;;12.98;10.50;;;15.60;54.60;;;;;;5108637;27;20039;-65
2021/06/06 01:16:33;;;;;;;14.05;10.50;;;15.70;55.20;;;;;;5122909;27;20054;-65
2021/06/06 01:19:37;;;;;;;16.93;11.07;;;15.70;55.00;;;;;;5122509;27;20039;-65
2021/06/06 01:22:51;;;;;;;14.70;10.65;;;15.70;55.10;;;;;;5122836;27;20586;-65
2021/06/06 01:25:50;;;;;;;14.20;10.02;;;15.60;54.60;;;;;;5123380;27;20051;-65
2021/06/06 01:28:43;;;;;;;14.68;10.15;;;15.70;53.70;;;;;;5112570;27;20063;-66
2021/06/06 01:31:36;;;;;;;11.85;8.80;;;15.70;54.70;;;;;;5115134;27;20043;-66
2021/06/06 01:34:28;;;;;;;13.43;9.55;;;15.60;54.70;;;;;;5109492;27;20043;-65
2021/06/06 01:37:21;;;;;;;13.13;9.40;;;15.60;55.30;;;;;;5111259;27;20409;-65
2021/06/06 01:40:14;;;;;;;13.68;10.20;;;15.60;55.80;;;;;;5104859;27;20514;-65
2021/06/06 01:43:25;;;;;;;14.43;10.30;;;15.60;55.40;;;;;;5131867;27;20039;-65
2021/06/06 01:46:19;;;;;;;18.02;12.52;;;15.60;55.50;;;;;;5112614;27;20062;-65
2021/06/06 01:49:31;;;;;;;16.95;11.73;;;15.60;55.60;;;;;;5128740;27;20051;-65
2021/06/06 01:52:21;;;;;;;13.07;10.88;;;15.50;56.20;;;;;;5126017;27;20043;-65
2021/06/06 01:55:13;;;;;;;16.15;11.25;;;15.50;55.60;;;;;;5113232;27;20092;-64
2021/06/06 01:58:12;;;;;;;13.93;10.88;;;15.60;57.20;;;;;;5116591;27;20057;-65
2021/06/06 02:01:14;;;;;;;16.00;11.38;;;15.60;55.90;;;;;;5112979;27;20050;-64
2021/06/06 02:04:04;;;;;;;15.60;11.07;;;15.50;56.30;;;;;;5115127;27;20711;-66
2021/06/06 02:07:00;;;;;;;16.10;10.75;;;15.50;56.90;;;;;;5098667;27;20672;-65
2021/06/06 02:10:05;;;;;;;17.33;11.20;;;15.50;57.00;;;;;;5114060;27;20414;-65
2021/06/06 02:13:03;;;;;;;16.70;11.85;;;15.60;56.00;;;;;;5113104;27;20046;-65
2021/06/06 02:15:59;;;;;;;16.95;10.75;;;15.50;56.60;;;;;;5114800;27;20134;-65
2021/06/06 02:18:54;;;;;;;13.23;10.25;;;15.50;55.80;;;;;;5112701;27;20063;-66
2021/06/06 02:21:46;;;;;;;14.80;10.48;;;15.40;55.50;;;;;;5114059;27;20043;-65
2021/06/06 02:25:24;;;;;;;14.70;10.48;;;15.40;56.70;;;;;;5125804;27;20063;-65
2021/06/06 02:29:34;;;;;;;16.17;9.90;;;15.40;57.50;;;;;;5126623;27;20108;-65
2021/06/06 02:32:30;;;;;;;14.02;9.15;;;15.30;56.80;;;;;;5111247;27;20059;-64
2021/06/06 02:35:46;;;;;;;10.73;8.70;;;15.30;56.70;;;;;;5108921;27;20059;-64
2021/06/06 02:38:38;;;;;;;13.38;9.07;;;15.30;55.80;;;;;;5125061;27;20039;-65
2021/06/06 02:41:37;;;;;;;12.95;9.57;;;15.30;57.00;;;;;;5114879;27;20502;-63
2021/06/06 02:44:29;;;;;;;13.35;9.65;;;15.20;57.20;;;;;;5125360;27;20489;-64
2021/06/06 02:47:29;;;;;;;12.85;9.75;;;15.20;58.10;;;;;;5111729;27;20046;-64
2021/06/06 02:50:28;;;;;;;13.80;9.43;;;15.10;57.10;;;;;;5111026;27;20050;-65
2021/06/06 02:53:23;;;;;;;14.45;10.38;;;15.20;58.10;;;;;;5127357;27;20052;-65
2021/06/06 02:56:13;;;;;;;12.55;9.38;;;15.30;58.20;;;;;;5129357;27;20489;-64
2021/06/06 02:59:07;;;;;;;12.65;8.95;;;15.20;58.10;;;;;;5110859;27;20164;-64
2021/06/06 03:02:00;;;;;;;16.15;9.93;;;15.20;58.10;;;;;;5111904;27;20053;-65
2021/06/06 03:04:53;;;;;;;12.68;9.75;;;15.20;57.60;;;;;;5109586;27;20046;-65
2021/06/06 03:07:47;;;;;;;12.20;8.45;;;15.20;58.00;;;;;;5127298;27;20043;-64
2021/06/06 03:10:40;;;;;;;14.75;8.57;;;15.00;57.60;;;;;;5130399;27;20058;-65
2021/06/06 03:13:33;;;;;;;13.30;8.63;;;15.00;58.70;;;;;;5126482;27;20046;-64
2021/06/06 03:16:24;;;;;;;13.10;8.82;;;15.00;59.20;;;;;;5109432;27;20147;-66
2021/06/06 03:19:17;;;;;;;12.38;7.95;;;15.00;58.80;;;;;;5130674;27;20043;-65
2021/06/06 03:22:13;;;;;;;11.40;8.48;;;15.00;59.10;;;;;;5112102;27;20536;-65
2021/06/06 03:25:11;;;;;;;13.07;8.63;;;14.90;58.50;;;;;;5112331;27;20110;-64
2021/06/06 03:28:03;;;;;;;;;;;14.90;59.50;;;;;;5118081;27;20162;-65
2021/06/06 03:30:56;;;;;;;11.70;7.32;;;14.90;58.40;;;;;;5111969;27;19920;-65
2021/06/06 03:33:53;;;;;;;14.90;7.28;;;15.00;59.60;;;;;;5110405;27;20046;-67
2021/06/06 03:36:50;;;;;;;12.80;7.22;;;14.80;58.30;;;;;;5125214;27;20046;-65
2021/06/06 03:39:53;;;;;;;10.60;6.40;;;14.80;59.90;;;;;;5118380;27;20051;-65
2021/06/06 03:42:46;;;;;;;9.23;6.40;;;14.80;59.50;;;;;;5115156;27;20031;-64
2021/06/06 03:45:36;;;;;;;10.70;6.00;;;14.80;59.90;;;;;;5126431;27;20051;-63
2021/06/06 03:48:26;;;;;;;11.32;6.00;;;14.70;60.10;;;;;;5126103;27;20444;-64
2021/06/06 03:51:15;;;;;;;7.47;5.13;;;14.70;60.10;;;;;;5123869;27;20108;-63
2021/06/06 03:54:03;;;;;;;9.30;6.15;;;14.70;60.10;;;;;;5113055;27;20055;-65
2021/06/06 03:56:52;;;;;;;9.55;5.15;;;14.70;59.70;;;;;;5121718;27;20057;-65
2021/06/06 03:59:43;;;;;;;8.27;5.25;;;14.70;59.50;;;;;;5124409;27;20058;-65
2021/06/06 04:02:33;;;;;;;6.40;4.70;;;14.80;60.20;;;;;;5110247;27;20553;-64
2021/06/06 04:05:22;;;;;;;10.43;5.13;;;14.80;59.10;;;;;;5099150;27;20047;-64
2021/06/06 04:08:11;;;;;;;5.50;4.30;;;14.80;60.30;;;;;;5110024;27;20047;-64
2021/06/06 04:11:05;;;;;;;7.63;4.57;;;14.80;60.90;;;;;;5126899;27;20051;-65
2021/06/06 04:13:56;;;;;;;6.00;3.90;;;14.70;60.40;;;;;;5123172;27;20539;-64
2021/06/06 04:16:47;;;;;;;7.03;4.22;;;14.80;61.50;;;;;;5111193;27;20039;-64
2021/06/06 04:19:36;;;;;;;5.90;4.22;;;14.80;60.80;;;;;;5114909;27;20152;-64
2021/06/06 04:22:25;;;;;;;7.57;4.30;;;14.60;60.80;;;;;;5110842;27;20098;-65
2021/06/06 04:25:19;;;;;;;7.53;4.13;;;14.60;61.20;;;;;;5112395;27;20043;-64
2021/06/06 04:28:08;;;;;;;7.75;4.07;;;14.60;61.70;;;;;;5109411;27;20626;-65
2021/06/06 04:30:58;;;;;;;6.00;3.92;;;14.50;61.80;;;;;;5117226;27;20133;-66
2021/06/06 04:33:48;;;;;;;8.57;4.70;;;14.60;62.50;;;;;;5112438;27;20054;-65
2021/06/06 04:36:42;;;;;;;8.93;4.55;;;14.60;62.30;;;;;;5105912;27;20581;-65
2021/06/06 04:39:31;;;;;;;5.97;4.22;;;14.50;62.00;;;;;;5108032;27;20051;-65
2021/06/06 04:42:21;;;;;;;5.72;4.32;;;14.60;63.80;;;;;;5108292;27;20043;-65
2021/06/06 04:45:15;;;;;;;8.00;5.78;;;14.50;63.40;;;;;;5125592;27;20035;-65
2021/06/06 04:48:11;;;;;;;8.48;5.45;;;14.50;63.60;;;;;;5127953;27;20054;-65
2021/06/06 04:51:03;;;;;;;6.55;4.47;;;14.60;65.10;;;;;;5110894;27;20128;-65
2021/06/06 04:53:58;;;;;;;7.70;4.65;;;14.60;64.60;;;;;;5109023;27;20125;-65
2021/06/06 04:56:46;;;;;;;8.18;5.10;;;14.50;64.50;;;;;;5110357;27;20520;-65
2021/06/06 04:59:42;;;;;;;7.00;4.90;;;14.50;64.50;;;;;;5112228;27;20129;-65
2021/06/06 05:02:34;;;;;;;8.93;4.95;;;14.60;65.20;;;;;;5132590;27;20490;-65
2021/06/06 05:05:23;;;;;;;6.78;5.20;;;14.60;64.50;;;;;;5110151;27;20529;-66
2021/06/06 05:08:13;;;;;;;10.32;5.50;;;14.60;64.70;;;;;;5109281;27;20418;-65
2021/06/06 05:11:04;;;;;;;8.25;5.32;;;14.50;64.00;;;;;;5127714;27;20051;-65
2021/06/06 05:13:56;;;;;;;9.45;5.72;;;14.60;63.90;;;;;;5123247;27;20043;-65
2021/06/06 05:16:45;;;;;;;8.57;6.07;;;14.60;63.60;;;;;;5115221;27;20517;-64
2021/06/06 05:19:35;;;;;;;8.18;5.60;;;14.60;64.30;;;;;;5106837;27;20061;-64
2021/06/06 05:22:23;;;;;;;13.77;6.15;;;14.70;64.50;;;;;;5123298;27;20802;-65
2021/06/06 05:25:14;;;;;;;8.55;5.90;;;14.70;64.70;;;;;;5109675;27;20039;-65
2021/06/06 05:28:07;;;;;;;14.80;6.82;;;14.80;64.40;;;;;;5107154;27;20440;-65
2021/06/06 05:30:56;;;;;;;10.75;7.18;;;14.70;63.80;;;;;;5123402;27;20601;-65
2021/06/06 05:33:44;;;;;;;13.07;7.38;;;14.60;63.80;;;;;;5121426;27;20175;-65
2021/06/06 05:36:32;;;;;;;10.73;7.07;;;14.70;64.30;;;;;;5123665;27;20046;-65
2021/06/06 05:39:20;;;;;;;10.23;7.10;;;14.70;64.70;;;;;;5107052;27;20131;-65
2021/06/06 05:42:09;;;;;;;12.75;7.15;;;14.60;64.40;;;;;;5126017;27;20077;-66
2021/06/06 05:44:58;;;;;;;10.38;7.68;;;14.70;65.60;;;;;;5127324;27;20138;-65
2021/06/06 05:47:46;;;;;;;9.55;6.43;;;14.70;65.10;;;;;;5121483;27;20803;-65
2021/06/06 05:50:37;;;;;;;13.25;7.70;;;14.70;65.60;;;;;;5126563;27;20180;-65
2021/06/06 05:53:48;;;;;;;12.02;7.65;;;14.60;65.70;;;;;;5123236;27;20076;-65
2021/06/06 05:56:35;;;;;;;10.57;7.20;;;14.70;66.10;;;;;;5124166;27;20530;-65
2021/06/06 05:59:23;;;;;;;12.82;7.82;;;14.80;66.20;;;;;;5121758;27;20405;-66
2021/06/06 06:02:13;;;;;;;14.60;8.48;;;14.70;66.00;;;;;;5128996;27;20126;-64
2021/06/06 06:05:00;;;;;;;14.13;9.23;;;14.80;67.20;;;;;;5112060;27;20486;-65
2021/06/06 06:07:49;;;;;;;13.38;8.50;;;14.70;66.00;;;;;;5123135;27;20222;-66
2021/06/06 06:10:36;;;;;;;15.15;8.95;;;14.80;66.30;;;;;;5128237;27;20047;-66
2021/06/06 06:13:28;;;;;;;13.35;8.15;;;14.80;66.20;;;;;;5108848;27;20054;-66
2021/06/06 06:16:19;;;;;;;14.32;8.30;;;14.70;66.00;;;;;;5121722;27;20047;-64
2021/06/06 06:19:10;;;;;;;12.88;8.70;;;14.80;66.40;;;;;;5110223;27;20050;-64
2021/06/06 06:21:58;;;;;;;17.73;9.15;;;14.70;66.40;;;;;;5107428;27;20047;-65
2021/06/06 06:24:46;;;;;;;14.55;9.45;;;14.70;66.30;;;;;;5128363;27;20153;-64
2021/06/06 06:27:34;;;;;;;10.32;8.07;;;14.80;66.90;;;;;;5123388;27;20501;-65
2021/06/06 06:30:38;;;;;;;12.18;7.75;;;14.70;67.10;;;;;;5127237;27;20731;-64
2021/06/06 06:33:26;;;;;;;13.10;8.38;;;14.70;67.50;;;;;;5115956;27;20429;-66
2021/06/06 06:36:18;;;;;;;15.85;8.73;;;14.70;67.90;;;;;;5128271;27;21650;-66
2021/06/06 06:39:06;;;;;;;12.15;8.65;;;14.80;68.50;;;;;;5128998;27;20081;-64
2021/06/06 06:41:54;;;;;;;12.68;8.68;;;14.80;68.10;;;;;;5129085;27;20561;-64
2021/06/06 06:44:42;;;;;;;12.20;8.20;;;14.70;67.80;;;;;;5128814;27;20046;-64
2021/06/06 06:47:34;;;;;;;11.98;8.57;;;14.80;68.20;;;;;;5124564;27;20048;-65
2021/06/06 06:50:22;;;;;;;14.88;9.10;;;14.80;68.10;;;;;;5131382;27;20047;-65
2021/06/06 06:53:11;;;;;;;10.10;8.48;;;14.80;67.70;;;;;;5116043;27;20054;-65
2021/06/06 06:56:00;;;;;;;12.27;9.07;;;14.80;68.00;;;;;;5128741;27;20036;-65
2021/06/06 06:58:49;;;;;;;11.90;9.07;;;14.80;68.00;;;;;;5125836;27;21593;-65
2021/06/06 07:01:37;;;;;;;13.30;9.32;;;14.80;67.90;;;;;;5116419;27;20054;-64
2021/06/06 07:04:26;;;;;;;14.82;10.10;;;14.90;68.60;;;;;;5126523;27;20471;-65
2021/06/06 07:07:14;;;;;;;15.02;9.63;;;14.90;68.20;;;;;;5125070;27;20042;-65
2021/06/06 07:10:05;;;;;;;11.52;9.13;;;14.90;68.00;;;;;;5130495;27;20050;-65
2021/06/06 07:12:53;;;;;;;10.82;8.50;;;15.00;68.80;;;;;;5125054;27;20047;-65
2021/06/06 07:15:42;;;;;;;11.90;8.90;;;14.90;68.10;;;;;;5128639;27;20187;-64
2021/06/06 07:18:35;;;;;;;12.23;8.60;;;14.90;68.00;;;;;;5125504;27;20114;-64
2021/06/06 07:21:24;;;;;;;14.68;9.10;;;14.90;68.40;;;;;;5125649;27;20069;-66
2021/06/06 07:24:12;;;;;;;12.13;8.38;;;15.00;68.50;;;;;;5125669;27;20122;-65
2021/06/06 07:27:01;;;;;;;13.10;9.73;;;15.00;68.20;;;;;;5132410;27;20101;-65
2021/06/06 07:29:53;;;;;;;11.90;8.68;;;14.90;67.70;;;;;;5127824;27;20051;-65
2021/06/06 07:32:41;;;;;;;13.88;9.30;;;15.00;69.00;;;;;;5122493;27;20050;-65
2021/06/06 07:35:32;;;;;;;13.10;8.73;;;15.00;69.10;;;;;;5132655;27;20050;-64
2021/06/06 07:38:20;;;;;;;15.23;10.32;;;15.00;68.70;;;;;;5128063;27;20110;-65
2021/06/06 07:41:10;;;;;;;15.68;10.45;;;14.90;69.60;;;;;;5129384;27;20183;-64
2021/06/06 07:43:59;;;;;;;17.20;10.63;;;15.00;69.80;;;;;;5127685;27;20055;-66
2021/06/06 07:46:47;;;;;;;18.27;11.10;;;15.00;70.00;;;;;;5126449;27;20045;-65
2021/06/06 07:49:35;;;;;;;18.40;11.50;;;15.00;70.10;;;;;;5128883;27;20058;-64
2021/06/06 07:52:23;;;;;;;18.08;11.77;;;15.00;70.30;;;;;;5125739;27;20696;-65
2021/06/06 07:55:21;;;;;;;20.58;12.20;;;15.10;70.50;;;;;;5124319;27;20494;-64
2021/06/06 07:58:10;;;;;;;16.77;12.27;;;15.10;70.50;;;;;;5113797;27;20066;-64
2021/06/06 08:01:03;;;;;;;20.20;11.25;;;15.10;70.40;;;;;;5126486;27;20127;-64
2021/06/06 08:03:52;;;;;;;19.48;12.48;;;15.10;70.70;;;;;;5128630;27;20058;-65
2021/06/06 08:06:40;;;;;;;20.83;11.50;;;15.30;70.80;;;;;;5116094;27;20061;-65
2021/06/06 08:09:28;;;;;;;19.60;11.10;;;15.10;70.20;;;;;;5106894;27;20450;-65
2021/06/06 08:12:15;;;;;;;19.27;12.35;;;15.10;70.50;;;;;;5127868;27;20047;-65
2021/06/06 08:15:05;;;;;;;18.75;12.00;;;15.10;70.50;;;;;;5130571;27;20049;-64
2021/06/06 08:17:55;;;;;;;20.48;12.55;;;15.20;70.60;;;;;;5110812;27;20172;-65
2021/06/06 08:20:52;;;;;;;20.65;13.45;;;15.20;70.60;;;;;;5127652;27;20048;-64
2021/06/06 08:23:40;;;;;;;23.63;13.13;;;15.10;70.60;;;;;;5123594;27;20135;-65
2021/06/06 08:26:29;;;;;;;20.20;13.68;;;15.10;70.50;;;;;;5125471;27;20055;-65
2021/06/06 08:29:17;;;;;;;21.27;13.70;;;15.10;70.80;;;;;;5131832;27;20121;-65
2021/06/06 08:32:06;;;;;;;21.13;13.88;;;15.10;70.90;;;;;;5111292;27;20058;-65
2021/06/06 08:34:55;;;;;;;27.15;15.20;;;15.10;71.40;;;;;;5126607;27;20043;-66
2021/06/06 08:37:46;;;;;;;26.38;15.68;;;15.30;73.30;;;;;;5122417;27;20047;-64
2021/06/06 08:40:39;;;;;;;29.33;18.48;;;15.30;73.30;;;;;;5111072;27;20047;-65
2021/06/06 08:43:38;;;;;;;33.72;19.38;;;15.40;73.40;;;;;;5128395;27;20520;-65
2021/06/06 08:46:26;;;;;;;31.00;18.63;;;15.40;72.40;;;;;;5125448;27;20035;-66
2021/06/06 08:49:14;;;;;;;29.70;17.08;;;15.40;72.20;;;;;;5094537;27;20050;-64
2021/06/06 08:52:25;;;;;;;29.85;17.40;;;15.30;72.10;;;;;;5126149;27;20046;-65
2021/06/06 08:55:27;;;;;;;29.67;17.45;;;15.30;71.70;;;;;;5125830;27;20063;-64
2021/06/06 08:58:29;;;;;;;26.35;16.00;;;15.30;71.80;;;;;;5121815;27;20048;-65
2021/06/06 09:01:26;;;;;;;28.40;16.63;;;15.50;72.60;;;;;;5112925;27;20075;-64
2021/06/06 09:04:19;;;;;;;27.38;17.38;;;15.60;72.40;;;;;;5124374;27;20049;-65
2021/06/06 09:07:11;;;;;;;22.98;16.27;;;15.60;71.70;;;;;;5122627;27;20130;-65
2021/06/06 09:10:06;;;;;;;26.95;17.10;;;15.50;70.90;;;;;;5096670;27;20502;-65
2021/06/06 09:12:56;;;;;;;27.00;16.27;;;15.40;71.00;;;;;;5122599;27;20088;-65
2021/06/06 09:15:45;;;;;;;25.17;15.18;;;15.60;71.80;;;;;;5130302;27;20409;-62
2021/06/06 09:18:33;;;;;;;24.45;15.63;;;15.50;68.60;;;;;;5124856;27;20125;-65
2021/06/06 09:21:23;;;;;;;29.13;17.33;;;15.40;69.60;;;;;;5125999;27;20244;-65
2021/06/06 09:24:14;;;;;;;28.33;18.40;;;15.50;69.50;;;;;;5093420;27;20051;-64
2021/06/06 09:27:13;;;;;;;32.25;20.20;;;15.50;69.40;;;;;;5125616;27;20122;-65
2021/06/06 09:30:06;;;;;;;35.65;22.08;;;15.50;69.30;;;;;;5105717;27;20059;-65
2021/06/06 09:33:05;;;;;;;35.63;21.30;;;15.40;70.00;;;;;;5122469;27;20505;-64
2021/06/06 09:35:56;;;;;;;39.42;23.58;;;15.50;70.90;;;;;;5109208;27;20410;-65
2021/06/06 09:38:46;;;;;;;39.55;23.13;;;15.60;70.50;;;;;;5110110;27;20122;-64
2021/06/06 09:41:37;;;;;;;43.10;25.67;;;15.90;71.30;;;;;;5110984;27;20494;-64
2021/06/06 09:44:29;;;;;;;41.80;26.33;;;15.70;69.10;;;;;;5128331;27;20051;-64
2021/06/06 09:47:19;;;;;;;50.58;29.70;;;15.50;70.30;;;;;;5120591;27;20230;-66
2021/06/06 09:50:19;;;;;;;52.38;31.15;;;15.70;71.10;;;;;;5123373;27;21087;-65
2021/06/06 09:53:13;;;;;;;58.25;32.90;;;15.80;70.10;;;;;;5123470;27;20402;-65
2021/06/06 09:56:06;;;;;;;55.45;32.70;;;15.80;71.10;;;;;;5124068;27;20058;-65
2021/06/06 09:59:07;;;;;;;52.35;30.48;;;15.80;68.60;;;;;;5124928;27;20176;-65
2021/06/06 10:02:01;;;;;;;52.53;30.63;;;15.70;68.20;;;;;;5128020;27;20047;-65
2021/06/06 10:05:01;;;;;;;53.92;32.42;;;15.80;68.60;;;;;;5115008;27;20038;-65
2021/06/06 10:07:56;;;;;;;54.92;32.88;;;15.90;68.90;;;;;;5129408;27;20070;-66
2021/06/06 10:10:47;;;;;;;54.53;31.80;;;15.80;70.40;;;;;;5128462;27;20506;-66
2021/06/06 10:13:39;;;;;;;57.25;32.55;;;15.80;70.10;;;;;;5130165;27;20059;-64
2021/06/06 10:16:32;;;;;;;61.92;34.03;;;15.80;69.50;;;;;;5116648;27;20049;-65
2021/06/06 10:19:26;;;;;;;60.75;35.03;;;15.80;70.10;;;;;;5126211;27;20039;-65
2021/06/06 10:22:20;;;;;;;61.85;36.33;;;15.80;71.20;;;;;;5127284;27;20069;-64
2021/06/06 10:25:15;;;;;;;60.05;36.72;;;15.80;71.80;;;;;;5112231;27;20058;-63
2021/06/06 10:28:05;;;;;;;;;;;15.70;71.40;;;;;;5118416;27;20047;-65
2021/06/06 10:31:01;;;;;;;67.45;37.67;;;15.70;72.50;;;;;;5101288;27;19922;-64
2021/06/06 10:33:53;;;;;;;61.15;36.42;;;15.70;72.10;;;;;;5120301;27;20044;-65
2021/06/06 10:36:42;;;;;;;71.72;39.53;;;15.60;72.20;;;;;;5123388;27;20047;-64
2021/06/06 10:39:38;;;;;;;79.65;41.47;;;15.60;72.80;;;;;;5126932;27;20525;-64
2021/06/06 10:42:30;;;;;;;77.93;42.15;;;15.60;73.00;;;;;;5128971;27;20057;-65
2021/06/06 10:45:24;;;;;;;97.88;44.45;;;15.50;72.50;;;;;;5112281;27;20039;-65
2021/06/06 10:48:16;;;;;;;87.78;44.47;;;15.50;72.90;;;;;;5123304;27;20039;-64
2021/06/06 10:51:11;;;;;;;93.55;46.88;;;15.60;72.70;;;;;;5133784;27;20075;-65
2021/06/06 10:54:05;;;;;;;98.10;48.55;;;15.70;73.30;;;;;;5132334;27;20592;-65
2021/06/06 10:56:56;;;;;;;93.20;47.33;;;15.70;72.40;;;;;;5127961;27;20184;-64
2021/06/06 10:59:47;;;;;;;99.82;48.45;;;15.60;71.10;;;;;;5124966;27;20783;-65
2021/06/06 11:02:55;;;;;;;101.22;49.15;;;15.80;71.70;;;;;;5125344;27;20429;-66
2021/06/06 11:05:47;;;;;;;97.45;47.03;;;15.90;71.20;;;;;;5125500;27;20039;-65
2021/06/06 11:08:42;;;;;;;93.18;47.80;;;15.90;71.30;;;;;;5113504;27;20035;-65
2021/06/06 11:11:32;;;;;;;93.78;47.25;;;16.00;71.30;;;;;;5128215;27;20043;-65
2021/06/06 11:14:33;;;;;;;90.15;48.83;;;15.80;69.60;;;;;;5128951;27;20054;-64
2021/06/06 11:17:32;;;;;;;93.97;46.65;;;15.90;69.10;;;;;;5125306;27;20054;-65
2021/06/06 11:20:33;;;;;;;87.50;45.85;;;16.00;67.70;;;;;;5129065;27;20047;-64
2021/06/06 11:23:35;;;;;;;89.57;44.35;;;16.00;69.20;;;;;;5124460;27;20466;-65
2021/06/06 11:26:35;;;;;;;81.13;43.10;;;15.90;67.10;;;;;;5127505;27;20047;-65
2021/06/06 11:29:39;;;;;;;79.90;43.08;;;16.00;67.90;;;;;;5108710;27;20126;-64
2021/06/06 11:32:33;;;;;;;76.18;43.08;;;16.00;67.70;;;;;;5122737;27;20047;-65
2021/06/06 11:35:25;;;;;;;71.15;41.47;;;16.00;67.10;;;;;;5125753;27;20055;-65
2021/06/06 11:38:25;;;;;;;73.05;41.20;;;16.20;68.90;;;;;;5127457;27;20051;-64
2021/06/06 11:41:30;;;;;;;72.93;40.80;;;16.20;67.30;;;;;;5129785;27;20039;-64
2021/06/06 11:44:22;;;;;;;61.17;38.72;;;16.20;67.00;;;;;;5124126;27;20756;-65
2021/06/06 11:47:20;;;;;;;67.30;39.15;;;16.30;66.70;;;;;;5125703;27;20118;-65
2021/06/06 11:50:12;;;;;;;67.95;41.25;;;16.30;67.50;;;;;;5124467;27;20047;-65
2021/06/06 11:53:04;;;;;;;70.22;39.83;;;16.40;66.80;;;;;;5127203;27;20075;-64
2021/06/06 11:55:57;;;;;;;68.45;37.97;;;16.30;65.60;;;;;;5128728;27;20055;-66
2021/06/06 11:58:49;;;;;;;66.07;38.22;;;16.40;66.10;;;;;;5112494;27;20058;-63
2021/06/06 12:02:08;;;;;;;65.72;39.03;;;16.40;66.60;;;;;;5129117;27;20051;-65
2021/06/06 12:05:08;;;;;;;73.53;41.35;;;16.40;67.70;;;;;;5112754;27;20035;-65
2021/06/06 12:08:07;;;;;;;68.03;38.55;;;16.50;66.40;;;;;;5123344;27;20047;-65
2021/06/06 12:10:58;;;;;;;69.03;38.90;;;16.40;66.30;;;;;;5123704;27;20043;-64
2021/06/06 12:13:47;;;;;;;70.22;41.92;;;16.40;65.90;;;;;;5127199;27;20047;-65
2021/06/06 12:16:35;;;;;;;69.18;40.33;;;16.50;65.20;;;;;;5127188;27;20542;-65
2021/06/06 12:19:26;;;;;;;69.40;40.10;;;16.50;65.20;;;;;;5126012;27;20054;-66
2021/06/06 12:22:22;;;;;;;64.05;37.47;;;16.40;64.90;;;;;;5123874;27;20039;-65
2021/06/06 12:25:28;;;;;;;63.05;39.55;;;16.50;66.40;;;;;;5130707;27;20038;-65
2021/06/06 12:28:19;;;;;;;72.28;40.03;;;16.60;64.20;;;;;;5109017;27;20523;-64
2021/06/06 12:31:15;;;;;;;65.07;39.70;;;16.90;66.60;;;;;;5123582;27;20085;-64
2021/06/06 12:34:17;;;;;;;65.47;39.00;;;16.90;61.60;;;;;;5125259;27;20051;-65
2021/06/06 12:37:10;;;;;;;68.95;39.30;;;16.70;61.10;;;;;;5130813;27;20051;-64
2021/06/06 12:40:01;;;;;;;66.30;40.05;;;17.00;63.90;;;;;;5128673;27;20126;-65
2021/06/06 12:42:55;;;;;;;63.97;39.47;;;17.10;62.50;;;;;;5127661;27;20474;-65
2021/06/06 12:45:46;;;;;;;69.53;40.28;;;17.00;60.80;;;;;;5123062;27;20044;-64
2021/06/06 12:48:37;;;;;;;60.72;39.05;;;17.10;59.30;;;;;;5126297;27;20553;-64
2021/06/06 12:51:29;;;;;;;62.40;38.67;;;17.00;60.80;;;;;;5111987;27;20058;-64
2021/06/06 12:54:20;;;;;;;72.25;39.58;;;17.00;62.90;;;;;;5121562;27;20180;-65
2021/06/06 12:57:17;;;;;;;62.28;39.03;;;17.10;61.90;;;;;;5123826;27;20059;-63
2021/06/06 13:00:10;;;;;;;72.75;40.95;;;16.80;61.60;;;;;;5128520;27;20509;-64
2021/06/06 13:02:58;;;;;;;75.13;43.83;;;16.80;64.00;;;;;;5123782;27;20499;-65
2021/06/06 13:05:56;;;;;;;72.20;42.80;;;16.90;62.70;;;;;;5105655;27;20047;-63
2021/06/06 13:08:44;;;;;;;69.20;39.75;;;16.90;61.40;;;;;;5124676;27;20058;-63
2021/06/06 13:11:36;;;;;;;70.20;42.17;;;16.90;63.80;;;;;;5128065;27;20409;-64
2021/06/06 13:14:37;;;;;;;76.63;42.80;;;17.00;62.50;;;;;;5110149;27;20047;-64
2021/06/06 13:17:29;;;;;;;57.70;38.50;;;17.30;62.10;;;;;;5121324;27;20039;-65
2021/06/06 13:20:29;;;;;;;58.33;36.85;;;17.20;59.90;;;;;;5120346;27;20502;-66
2021/06/06 13:23:29;;;;;;;67.78;39.47;;;17.10;59.80;;;;;;5121294;27;20043;-65
2021/06/06 13:26:21;;;;;;;62.90;38.10;;;17.20;59.40;;;;;;5122897;27;20076;-64
2021/06/06 13:29:13;;;;;;;61.10;39.55;;;17.20;59.00;;;;;;5120057;27;20100;-65
2021/06/06 13:32:11;;;;;;;64.22;40.20;;;17.10;61.60;;;;;;5119229;27;20268;-65
2021/06/06 13:35:01;;;;;;;62.83;40.22;;;17.30;60.00;;;;;;5118793;27;20043;-65
2021/06/06 13:37:49;;;;;;;63.58;39.80;;;17.30;61.30;;;;;;5112385;27;20615;-65
2021/06/06 13:40:41;;;;;;;62.25;40.78;;;17.40;61.00;;;;;;5101714;27;20185;-64
2021/06/06 13:43:29;;;;;;;64.43;38.95;;;17.50;61.70;;;;;;5112425;27;20513;-64
2021/06/06 13:46:19;;;;;;;54.50;35.63;;;17.60;60.30;;;;;;5127289;27;20050;-64
2021/06/06 13:49:09;;;;;;;63.35;39.53;;;17.40;58.40;;;;;;5124582;27;20043;-64
2021/06/06 13:51:58;;;;;;;55.70;37.15;;;17.60;61.30;;;;;;5117807;27;20132;-64
2021/06/06 13:54:46;;;;;;;52.30;36.83;;;17.60;58.30;;;;;;5123173;27;20043;-64
2021/06/06 13:57:34;;;;;;;56.72;36.13;;;17.70;58.20;;;;;;5120856;27;20136;-65
2021/06/06 14:00:23;;;;;;;49.00;33.85;;;17.80;57.20;;;;;;5126964;27;20046;-65
2021/06/06 14:03:14;;;;;;;49.53;34.42;;;17.80;56.30;;;;;;5116530;27;20047;-65
2021/06/06 14:06:05;;;;;;;50.63;33.28;;;17.90;56.50;;;;;;5119702;27;20501;-65
2021/06/06 14:08:53;;;;;;;48.80;33.40;;;18.00;52.50;;;;;;5120034;27;20056;-64
2021/06/06 14:11:47;;;;;;;45.38;30.75;;;18.20;50.60;;;;;;5125255;27;20047;-64
2021/06/06 14:14:36;;;;;;;44.25;31.98;;;18.10;49.10;;;;;;5122089;27;20095;-64
2021/06/06 14:17:24;;;;;;;44.88;30.52;;;18.20;48.80;;;;;;5118792;27;20036;-65
2021/06/06 14:20:13;;;;;;;46.58;30.92;;;18.10;50.80;;;;;;5121962;27;20570;-67
2021/06/06 14:23:04;;;;;;;42.30;29.98;;;18.30;49.10;;;;;;5118361;27;20162;-65
2021/06/06 14:25:52;;;;;;;46.10;31.27;;;18.30;48.20;;;;;;5121278;27;20052;-67
2021/06/06 14:28:40;;;;;;;41.28;28.52;;;18.30;48.30;;;;;;5121644;27;20057;-66
2021/06/06 14:31:28;;;;;;;37.00;27.52;;;18.20;48.10;;;;;;5121430;27;20099;-66
2021/06/06 14:34:17;;;;;;;41.50;28.80;;;18.30;46.30;;;;;;5107980;27;20043;-66
2021/06/06 14:37:06;;;;;;;42.22;28.23;;;18.30;45.00;;;;;;5122484;27;20044;-66
2021/06/06 14:39:57;;;;;;;37.85;27.95;;;18.30;48.80;;;;;;5122022;27;20055;-66
2021/06/06 14:42:45;;;;;;;39.45;28.02;;;18.20;44.30;;;;;;5122558;27;20039;-66
2021/06/06 14:45:35;;;;;;;41.65;28.08;;;18.20;48.10;;;;;;5105354;27;20494;-66